This is the latest recevied weather packets stored in our database for station/object KM8ICE-10. If no packets are shown the sender has not sent any weather packets the latest 10 day(s).
| Time | Temp. | Humidity | Pressure | Rain* | Wind** | Luminosity | Snow |
|---|---|---|---|---|---|---|---|
| 1777894207 | 12.22° C | 76% | 1013.7 hPa | 0.51 mm | - | - | - |
| 1777893607 | 11.67° C | 80% | 1013.7 hPa | 0.51 mm | - | - | - |
| 1777893080 | 12.22° C | 76% | 1012.2 hPa | 0 mm | - | - | - |
| 1777893007 | 12.22° C | 80% | 1012.3 hPa | 0.25 mm | - | - | - |
| 1777892408 | 12.22° C | 76% | 1012.2 hPa | 0 mm | - | - | - |
| 1777891807 | 12.22° C | 75% | 1012.2 hPa | 0 mm | - | - | - |
| 1777891208 | 12.22° C | 75% | 1012.5 hPa | 0 mm | - | - | - |
| 1777890007 | 12.22° C | 74% | 1012.7 hPa | 0 mm | - | - | - |
| 1777889525 | 12.22° C | 76% | 1013 hPa | 0.25 mm | - | - | - |
| 1777889407 | 12.22° C | 76% | 1013 hPa | 0.25 mm | - | - | - |
| 1777888841 | 11.67° C | 84% | 1013.3 hPa | 0.51 mm | - | - | - |
| 1777888807 | 11.67° C | 82% | 1013 hPa | 0.51 mm | - | - | - |
| 1777888207 | 11.67° C | 84% | 1013.3 hPa | 0.51 mm | - | - | - |
| 1777887607 | 11.67° C | 82% | 1013.5 hPa | 0.51 mm | - | - | - |
| 1777887007 | 11.67° C | 80% | 1013.2 hPa | 0.51 mm | - | - | - |
| 1777886408 | 12.22° C | 79% | 1013.4 hPa | 0.51 mm | - | - | - |
| 1777885807 | 13.89° C | 71% | 1013.2 hPa | 0.25 mm | - | - | - |
| 1777885207 | 14.44° C | 58% | 1013.4 hPa | 0 mm | - | - | - |
| 1777884607 | 14.44° C | 57% | 1012.6 hPa | 0 mm | - | - | - |
| 1777884007 | 14.44° C | 56% | 1012.2 hPa | 0 mm | - | - | - |
| 1777883407 | 14.44° C | 55% | 1012.4 hPa | 0 mm | - | - | - |
| 1777882807 | 14.44° C | 55% | 1012.4 hPa | 0 mm | - | - | - |
| 1777882207 | 14.44° C | 54% | 1012.2 hPa | 0 mm | - | - | - |
| 1777881607 | 14.44° C | 55% | 1012.2 hPa | 0 mm | - | - | - |
| 1777881007 | 14.44° C | 55% | 1012.4 hPa | 0 mm | - | - | - |
* Rain latest hour (hover to see other rain measurements)
** Current wind speed in m/s (hover to see current wind gust speed)